sensor_id;sensor_type;location;lat;lon;timestamp;temperature;humidity
74901;DHT22;63461;51.416;6.758;2023-07-28T00:00:07;17.90;99.90
74901;DHT22;63461;51.416;6.758;2023-07-28T00:02:36;17.90;99.90
74901;DHT22;63461;51.416;6.758;2023-07-28T00:05:02;17.90;99.90
74901;DHT22;63461;51.416;6.758;2023-07-28T00:07:28;17.90;99.90
74901;DHT22;63461;51.416;6.758;2023-07-28T00:09:54;17.90;99.90
74901;DHT22;63461;51.416;6.758;2023-07-28T00:12:19;17.90;99.90
74901;DHT22;63461;51.416;6.758;2023-07-28T00:14:47;17.90;99.90
74901;DHT22;63461;51.416;6.758;2023-07-28T00:17:13;17.90;99.90
74901;DHT22;63461;51.416;6.758;2023-07-28T00:19:38;17.90;99.90
74901;DHT22;63461;51.416;6.758;2023-07-28T00:22:04;17.90;99.90
74901;DHT22;63461;51.416;6.758;2023-07-28T00:24:30;17.90;99.90
74901;DHT22;63461;51.416;6.758;2023-07-28T00:26:55;17.90;99.90
74901;DHT22;63461;51.416;6.758;2023-07-28T00:29:21;17.90;99.90
74901;DHT22;63461;51.416;6.758;2023-07-28T00:31:47;17.80;99.90
74901;DHT22;63461;51.416;6.758;2023-07-28T00:34:14;17.80;99.90
74901;DHT22;63461;51.416;6.758;2023-07-28T00:36:40;17.80;99.90
74901;DHT22;63461;51.416;6.758;2023-07-28T00:39:07;17.80;99.90
74901;DHT22;63461;51.416;6.758;2023-07-28T00:41:32;17.80;99.90
74901;DHT22;63461;51.416;6.758;2023-07-28T00:43:58;17.80;99.90
74901;DHT22;63461;51.416;6.758;2023-07-28T00:46:24;17.90;99.90
74901;DHT22;63461;51.416;6.758;2023-07-28T00:48:50;17.80;99.90
74901;DHT22;63461;51.416;6.758;2023-07-28T00:51:16;17.80;99.90
74901;DHT22;63461;51.416;6.758;2023-07-28T00:53:43;17.80;99.90
74901;DHT22;63461;51.416;6.758;2023-07-28T00:56:10;17.80;99.90
74901;DHT22;63461;51.416;6.758;2023-07-28T00:58:36;17.90;99.90
74901;DHT22;63461;51.416;6.758;2023-07-28T01:01:02;17.80;99.90
74901;DHT22;63461;51.416;6.758;2023-07-28T01:03:28;17.80;99.90
74901;DHT22;63461;51.416;6.758;2023-07-28T01:06:14;17.80;99.90
74901;DHT22;63461;51.416;6.758;2023-07-28T01:08:49;17.80;99.90
74901;DHT22;63461;51.416;6.758;2023-07-28T01:11:20;17.80;99.90
74901;DHT22;63461;51.416;6.758;2023-07-28T01:13:46;17.80;99.90
74901;DHT22;63461;51.416;6.758;2023-07-28T01:16:12;17.80;99.90
74901;DHT22;63461;51.416;6.758;2023-07-28T01:18:38;17.80;99.90
74901;DHT22;63461;51.416;6.758;2023-07-28T01:21:08;17.80;99.90
74901;DHT22;63461;51.416;6.758;2023-07-28T01:23:48;17.80;99.90
74901;DHT22;63461;51.416;6.758;2023-07-28T01:26:31;17.80;99.90
74901;DHT22;63461;51.416;6.758;2023-07-28T01:28:58;17.80;99.90
74901;DHT22;63461;51.416;6.758;2023-07-28T01:31:25;17.80;99.90
74901;DHT22;63461;51.416;6.758;2023-07-28T01:33:50;17.80;99.90
74901;DHT22;63461;51.416;6.758;2023-07-28T01:36:16;17.80;99.90
74901;DHT22;63461;51.416;6.758;2023-07-28T01:38:42;17.80;99.90
74901;DHT22;63461;51.416;6.758;2023-07-28T01:41:08;17.80;99.90
74901;DHT22;63461;51.416;6.758;2023-07-28T01:43:34;17.80;99.90
74901;DHT22;63461;51.416;6.758;2023-07-28T01:45:59;17.80;99.90
74901;DHT22;63461;51.416;6.758;2023-07-28T01:48:26;17.80;99.90
74901;DHT22;63461;51.416;6.758;2023-07-28T01:50:52;17.80;99.90
74901;DHT22;63461;51.416;6.758;2023-07-28T01:53:18;17.80;99.90
74901;DHT22;63461;51.416;6.758;2023-07-28T01:55:43;17.70;99.90
74901;DHT22;63461;51.416;6.758;2023-07-28T01:58:09;17.70;99.90
74901;DHT22;63461;51.416;6.758;2023-07-28T02:00:35;17.80;99.90
74901;DHT22;63461;51.416;6.758;2023-07-28T02:03:01;17.80;99.90
74901;DHT22;63461;51.416;6.758;2023-07-28T02:05:29;17.80;99.90
74901;DHT22;63461;51.416;6.758;2023-07-28T02:07:55;17.80;99.90
74901;DHT22;63461;51.416;6.758;2023-07-28T02:10:22;17.80;99.90
74901;DHT22;63461;51.416;6.758;2023-07-28T02:12:49;17.80;99.90
74901;DHT22;63461;51.416;6.758;2023-07-28T02:15:16;17.80;99.90
74901;DHT22;63461;51.416;6.758;2023-07-28T02:17:42;17.70;99.90
74901;DHT22;63461;51.416;6.758;2023-07-28T02:20:08;17.70;99.90
74901;DHT22;63461;51.416;6.758;2023-07-28T02:22:36;17.80;99.90
74901;DHT22;63461;51.416;6.758;2023-07-28T02:25:02;17.80;99.90
74901;DHT22;63461;51.416;6.758;2023-07-28T02:27:30;17.80;99.90
74901;DHT22;63461;51.416;6.758;2023-07-28T02:29:56;17.80;99.90
74901;DHT22;63461;51.416;6.758;2023-07-28T02:32:22;17.70;99.90
74901;DHT22;63461;51.416;6.758;2023-07-28T02:34:48;17.80;99.90
74901;DHT22;63461;51.416;6.758;2023-07-28T02:37:14;17.80;99.90
74901;DHT22;63461;51.416;6.758;2023-07-28T02:39:41;17.80;99.90
74901;DHT22;63461;51.416;6.758;2023-07-28T02:42:07;17.80;99.90
74901;DHT22;63461;51.416;6.758;2023-07-28T02:44:33;17.80;99.90
74901;DHT22;63461;51.416;6.758;2023-07-28T02:46:59;17.80;99.90
74901;DHT22;63461;51.416;6.758;2023-07-28T02:49:25;17.80;99.90
74901;DHT22;63461;51.416;6.758;2023-07-28T02:51:50;17.80;99.90
74901;DHT22;63461;51.416;6.758;2023-07-28T02:54:16;17.80;99.90
74901;DHT22;63461;51.416;6.758;2023-07-28T02:56:42;17.80;99.90
74901;DHT22;63461;51.416;6.758;2023-07-28T02:59:10;17.80;99.90
74901;DHT22;63461;51.416;6.758;2023-07-28T03:01:36;17.80;99.90
74901;DHT22;63461;51.416;6.758;2023-07-28T03:04:03;17.80;99.90
74901;DHT22;63461;51.416;6.758;2023-07-28T03:06:35;17.90;99.90
74901;DHT22;63461;51.416;6.758;2023-07-28T03:09:01;17.80;99.90
74901;DHT22;63461;51.416;6.758;2023-07-28T03:11:49;17.80;99.90
74901;DHT22;63461;51.416;6.758;2023-07-28T03:14:15;17.90;99.90
74901;DHT22;63461;51.416;6.758;2023-07-28T03:16:42;17.90;99.90
74901;DHT22;63461;51.416;6.758;2023-07-28T03:19:07;17.80;99.90
74901;DHT22;63461;51.416;6.758;2023-07-28T03:21:33;17.80;99.90
74901;DHT22;63461;51.416;6.758;2023-07-28T03:23:59;17.80;99.90
74901;DHT22;63461;51.416;6.758;2023-07-28T03:26:25;17.80;99.90
74901;DHT22;63461;51.416;6.758;2023-07-28T03:28:51;17.90;99.90
74901;DHT22;63461;51.416;6.758;2023-07-28T03:31:17;17.80;99.90
74901;DHT22;63461;51.416;6.758;2023-07-28T03:33:42;17.80;99.90
74901;DHT22;63461;51.416;6.758;2023-07-28T03:36:08;17.90;99.90
74901;DHT22;63461;51.416;6.758;2023-07-28T03:38:35;17.90;99.90
74901;DHT22;63461;51.416;6.758;2023-07-28T03:41:03;17.90;99.90
74901;DHT22;63461;51.416;6.758;2023-07-28T03:43:29;17.90;99.90
74901;DHT22;63461;51.416;6.758;2023-07-28T03:45:54;17.90;99.90
74901;DHT22;63461;51.416;6.758;2023-07-28T03:48:20;17.90;99.90
74901;DHT22;63461;51.416;6.758;2023-07-28T03:50:46;17.90;99.90
74901;DHT22;63461;51.416;6.758;2023-07-28T03:53:12;17.90;99.90
74901;DHT22;63461;51.416;6.758;2023-07-28T03:55:37;17.90;99.90
74901;DHT22;63461;51.416;6.758;2023-07-28T03:58:03;17.90;99.90
74901;DHT22;63461;51.416;6.758;2023-07-28T04:00:30;17.90;99.90
74901;DHT22;63461;51.416;6.758;2023-07-28T04:02:56;17.90;99.90
74901;DHT22;63461;51.416;6.758;2023-07-28T04:05:21;17.90;99.90
74901;DHT22;63461;51.416;6.758;2023-07-28T04:07:47;17.90;99.90
74901;DHT22;63461;51.416;6.758;2023-07-28T04:10:15;17.90;99.90
74901;DHT22;63461;51.416;6.758;2023-07-28T04:12:40;18.00;99.90
74901;DHT22;63461;51.416;6.758;2023-07-28T04:15:06;18.00;99.90
74901;DHT22;63461;51.416;6.758;2023-07-28T04:17:32;17.90;99.90
74901;DHT22;63461;51.416;6.758;2023-07-28T04:19:58;17.90;99.90
74901;DHT22;63461;51.416;6.758;2023-07-28T04:22:24;17.90;99.90
74901;DHT22;63461;51.416;6.758;2023-07-28T04:24:52;18.00;99.90
74901;DHT22;63461;51.416;6.758;2023-07-28T04:27:19;18.00;99.90
74901;DHT22;63461;51.416;6.758;2023-07-28T04:29:46;17.90;99.90
74901;DHT22;63461;51.416;6.758;2023-07-28T04:32:14;18.00;99.90
74901;DHT22;63461;51.416;6.758;2023-07-28T04:34:40;18.00;99.90
74901;DHT22;63461;51.416;6.758;2023-07-28T04:37:14;18.00;99.90
74901;DHT22;63461;51.416;6.758;2023-07-28T04:39:51;18.00;99.90
74901;DHT22;63461;51.416;6.758;2023-07-28T04:42:17;18.00;99.90
74901;DHT22;63461;51.416;6.758;2023-07-28T04:44:45;18.00;99.90
74901;DHT22;63461;51.416;6.758;2023-07-28T04:47:12;18.10;99.90
74901;DHT22;63461;51.416;6.758;2023-07-28T04:49:37;18.10;99.90
74901;DHT22;63461;51.416;6.758;2023-07-28T04:52:07;18.10;99.90
74901;DHT22;63461;51.416;6.758;2023-07-28T04:54:43;18.10;99.90
74901;DHT22;63461;51.416;6.758;2023-07-28T04:57:09;18.10;99.90
74901;DHT22;63461;51.416;6.758;2023-07-28T04:59:37;18.20;99.90
74901;DHT22;63461;51.416;6.758;2023-07-28T05:02:03;18.20;99.90
74901;DHT22;63461;51.416;6.758;2023-07-28T05:04:29;18.20;99.90
74901;DHT22;63461;51.416;6.758;2023-07-28T05:06:55;18.20;99.90
74901;DHT22;63461;51.416;6.758;2023-07-28T05:09:21;18.20;99.90
74901;DHT22;63461;51.416;6.758;2023-07-28T05:11:46;18.20;99.90
74901;DHT22;63461;51.416;6.758;2023-07-28T05:14:12;18.30;99.90
74901;DHT22;63461;51.416;6.758;2023-07-28T05:16:38;18.20;99.90
74901;DHT22;63461;51.416;6.758;2023-07-28T05:19:11;18.20;99.90
74901;DHT22;63461;51.416;6.758;2023-07-28T05:21:55;18.20;99.90
74901;DHT22;63461;51.416;6.758;2023-07-28T05:24:27;18.30;99.90
74901;DHT22;63461;51.416;6.758;2023-07-28T05:26:53;18.30;99.90
74901;DHT22;63461;51.416;6.758;2023-07-28T05:29:19;18.30;99.90
74901;DHT22;63461;51.416;6.758;2023-07-28T05:31:46;18.30;99.90
74901;DHT22;63461;51.416;6.758;2023-07-28T05:34:34;18.30;99.90
74901;DHT22;63461;51.416;6.758;2023-07-28T05:37:00;18.30;99.90
74901;DHT22;63461;51.416;6.758;2023-07-28T05:39:29;18.30;99.90
74901;DHT22;63461;51.416;6.758;2023-07-28T05:41:55;18.30;99.90
74901;DHT22;63461;51.416;6.758;2023-07-28T05:44:21;18.30;99.90
74901;DHT22;63461;51.416;6.758;2023-07-28T05:46:47;18.40;99.90
74901;DHT22;63461;51.416;6.758;2023-07-28T05:49:14;18.40;99.90
74901;DHT22;63461;51.416;6.758;2023-07-28T05:51:40;18.40;99.90
74901;DHT22;63461;51.416;6.758;2023-07-28T05:54:06;18.40;99.90
74901;DHT22;63461;51.416;6.758;2023-07-28T05:56:31;18.40;99.90
74901;DHT22;63461;51.416;6.758;2023-07-28T05:58:57;18.30;99.90
74901;DHT22;63461;51.416;6.758;2023-07-28T06:01:23;18.30;99.90
74901;DHT22;63461;51.416;6.758;2023-07-28T06:04:09;18.40;99.90
74901;DHT22;63461;51.416;6.758;2023-07-28T06:06:41;18.40;99.90
74901;DHT22;63461;51.416;6.758;2023-07-28T06:09:07;18.60;99.90
74901;DHT22;63461;51.416;6.758;2023-07-28T06:11:34;18.60;99.90
74901;DHT22;63461;51.416;6.758;2023-07-28T06:14:01;18.50;99.90
74901;DHT22;63461;51.416;6.758;2023-07-28T06:16:27;18.50;99.90
74901;DHT22;63461;51.416;6.758;2023-07-28T06:18:52;18.70;99.90
74901;DHT22;63461;51.416;6.758;2023-07-28T06:21:21;18.60;99.90
74901;DHT22;63461;51.416;6.758;2023-07-28T06:23:47;18.60;99.90
74901;DHT22;63461;51.416;6.758;2023-07-28T06:26:13;18.60;99.90
74901;DHT22;63461;51.416;6.758;2023-07-28T06:28:39;18.60;99.90
74901;DHT22;63461;51.416;6.758;2023-07-28T06:31:05;18.60;99.90
74901;DHT22;63461;51.416;6.758;2023-07-28T06:33:31;18.60;99.90
74901;DHT22;63461;51.416;6.758;2023-07-28T06:35:57;18.60;99.90
74901;DHT22;63461;51.416;6.758;2023-07-28T06:38:23;18.60;99.90
74901;DHT22;63461;51.416;6.758;2023-07-28T06:40:49;18.70;99.90
74901;DHT22;63461;51.416;6.758;2023-07-28T06:43:16;18.70;99.90
74901;DHT22;63461;51.416;6.758;2023-07-28T06:45:46;18.70;99.90
74901;DHT22;63461;51.416;6.758;2023-07-28T06:48:12;18.80;99.90
74901;DHT22;63461;51.416;6.758;2023-07-28T06:50:38;18.80;99.90
74901;DHT22;63461;51.416;6.758;2023-07-28T06:53:04;18.90;99.90
74901;DHT22;63461;51.416;6.758;2023-07-28T06:55:31;19.00;99.90
74901;DHT22;63461;51.416;6.758;2023-07-28T06:57:56;18.90;99.90
74901;DHT22;63461;51.416;6.758;2023-07-28T07:00:22;18.90;99.90
74901;DHT22;63461;51.416;6.758;2023-07-28T07:02:48;19.00;99.90
74901;DHT22;63461;51.416;6.758;2023-07-28T07:05:14;19.00;99.90
74901;DHT22;63461;51.416;6.758;2023-07-28T07:07:40;19.10;99.90
74901;DHT22;63461;51.416;6.758;2023-07-28T07:10:07;19.20;99.90
74901;DHT22;63461;51.416;6.758;2023-07-28T07:12:33;19.20;99.90
74901;DHT22;63461;51.416;6.758;2023-07-28T07:14:59;19.30;99.90
74901;DHT22;63461;51.416;6.758;2023-07-28T07:17:25;19.10;99.90
74901;DHT22;63461;51.416;6.758;2023-07-28T07:19:50;19.20;99.90
74901;DHT22;63461;51.416;6.758;2023-07-28T07:22:16;19.20;99.90
74901;DHT22;63461;51.416;6.758;2023-07-28T07:24:42;19.20;99.90
74901;DHT22;63461;51.416;6.758;2023-07-28T07:27:08;19.40;99.90
74901;DHT22;63461;51.416;6.758;2023-07-28T07:29:38;19.40;99.90
74901;DHT22;63461;51.416;6.758;2023-07-28T07:32:05;19.40;99.90
74901;DHT22;63461;51.416;6.758;2023-07-28T07:34:32;19.40;99.90
74901;DHT22;63461;51.416;6.758;2023-07-28T07:36:58;19.50;99.90
74901;DHT22;63461;51.416;6.758;2023-07-28T07:39:24;19.50;99.90
74901;DHT22;63461;51.416;6.758;2023-07-28T07:41:50;19.50;99.90
74901;DHT22;63461;51.416;6.758;2023-07-28T07:44:16;19.50;99.90
74901;DHT22;63461;51.416;6.758;2023-07-28T07:46:41;19.50;99.90
74901;DHT22;63461;51.416;6.758;2023-07-28T07:49:07;19.40;99.90
74901;DHT22;63461;51.416;6.758;2023-07-28T07:51:34;19.50;99.90
74901;DHT22;63461;51.416;6.758;2023-07-28T07:54:00;19.40;99.90
74901;DHT22;63461;51.416;6.758;2023-07-28T07:56:29;19.50;99.90
74901;DHT22;63461;51.416;6.758;2023-07-28T07:58:55;19.60;99.90
74901;DHT22;63461;51.416;6.758;2023-07-28T08:01:21;19.60;99.90
74901;DHT22;63461;51.416;6.758;2023-07-28T08:03:47;19.70;99.90
74901;DHT22;63461;51.416;6.758;2023-07-28T08:06:13;19.70;99.90
74901;DHT22;63461;51.416;6.758;2023-07-28T08:08:39;19.80;99.90
74901;DHT22;63461;51.416;6.758;2023-07-28T08:11:05;19.80;99.90
74901;DHT22;63461;51.416;6.758;2023-07-28T08:13:31;19.90;99.90
74901;DHT22;63461;51.416;6.758;2023-07-28T08:15:57;20.00;99.90
74901;DHT22;63461;51.416;6.758;2023-07-28T08:18:22;20.10;99.90
74901;DHT22;63461;51.416;6.758;2023-07-28T08:20:48;20.20;99.90
74901;DHT22;63461;51.416;6.758;2023-07-28T08:23:14;20.20;99.90
74901;DHT22;63461;51.416;6.758;2023-07-28T08:25:40;20.20;99.90
74901;DHT22;63461;51.416;6.758;2023-07-28T08:28:06;20.20;99.90
74901;DHT22;63461;51.416;6.758;2023-07-28T08:30:32;20.10;99.90
74901;DHT22;63461;51.416;6.758;2023-07-28T08:32:58;20.00;99.90
74901;DHT22;63461;51.416;6.758;2023-07-28T08:35:24;19.90;99.90
74901;DHT22;63461;51.416;6.758;2023-07-28T08:37:49;20.00;99.90
74901;DHT22;63461;51.416;6.758;2023-07-28T08:40:16;20.00;99.90
74901;DHT22;63461;51.416;6.758;2023-07-28T08:42:42;19.90;99.90
74901;DHT22;63461;51.416;6.758;2023-07-28T08:45:08;19.90;99.90
74901;DHT22;63461;51.416;6.758;2023-07-28T08:47:35;20.00;99.90
74901;DHT22;63461;51.416;6.758;2023-07-28T08:50:00;20.10;99.90
74901;DHT22;63461;51.416;6.758;2023-07-28T08:52:26;20.10;99.90
74901;DHT22;63461;51.416;6.758;2023-07-28T08:54:53;20.10;99.90
74901;DHT22;63461;51.416;6.758;2023-07-28T08:57:19;20.00;99.90
74901;DHT22;63461;51.416;6.758;2023-07-28T08:59:45;19.90;99.90
74901;DHT22;63461;51.416;6.758;2023-07-28T09:02:17;20.00;99.90
74901;DHT22;63461;51.416;6.758;2023-07-28T09:04:44;19.90;99.90
74901;DHT22;63461;51.416;6.758;2023-07-28T09:07:10;20.00;99.90
74901;DHT22;63461;51.416;6.758;2023-07-28T09:09:36;20.00;99.90
74901;DHT22;63461;51.416;6.758;2023-07-28T09:12:07;20.10;99.90
74901;DHT22;63461;51.416;6.758;2023-07-28T09:14:36;20.00;99.90
74901;DHT22;63461;51.416;6.758;2023-07-28T09:19:34;20.20;99.90
74901;DHT22;63461;51.416;6.758;2023-07-28T09:22:01;20.30;99.90
74901;DHT22;63461;51.416;6.758;2023-07-28T09:24:31;20.40;99.90
74901;DHT22;63461;51.416;6.758;2023-07-28T09:26:58;20.40;99.90
74901;DHT22;63461;51.416;6.758;2023-07-28T09:29:25;20.40;99.90
74901;DHT22;63461;51.416;6.758;2023-07-28T09:31:53;20.50;99.90
74901;DHT22;63461;51.416;6.758;2023-07-28T09:34:28;20.60;99.90
74901;DHT22;63461;51.416;6.758;2023-07-28T09:36:58;20.60;99.90
74901;DHT22;63461;51.416;6.758;2023-07-28T09:39:25;20.70;99.90
74901;DHT22;63461;51.416;6.758;2023-07-28T09:41:51;20.90;99.90
74901;DHT22;63461;51.416;6.758;2023-07-28T09:44:17;20.90;99.90
74901;DHT22;63461;51.416;6.758;2023-07-28T09:46:51;21.00;99.90
74901;DHT22;63461;51.416;6.758;2023-07-28T09:49:44;21.10;99.90
74901;DHT22;63461;51.416;6.758;2023-07-28T09:52:12;21.10;99.90
74901;DHT22;63461;51.416;6.758;2023-07-28T09:54:40;21.00;99.90
74901;DHT22;63461;51.416;6.758;2023-07-28T09:57:14;20.90;99.90
74901;DHT22;63461;51.416;6.758;2023-07-28T09:59:47;20.70;99.90
74901;DHT22;63461;51.416;6.758;2023-07-28T10:02:13;20.60;99.90
74901;DHT22;63461;51.416;6.758;2023-07-28T10:04:39;20.60;99.90
74901;DHT22;63461;51.416;6.758;2023-07-28T10:07:06;20.70;99.90
74901;DHT22;63461;51.416;6.758;2023-07-28T10:09:33;20.90;99.90
74901;DHT22;63461;51.416;6.758;2023-07-28T10:12:00;21.10;99.90
74901;DHT22;63461;51.416;6.758;2023-07-28T10:14:36;21.20;99.90
74901;DHT22;63461;51.416;6.758;2023-07-28T10:17:05;21.20;99.90
74901;DHT22;63461;51.416;6.758;2023-07-28T10:19:35;21.10;99.90
74901;DHT22;63461;51.416;6.758;2023-07-28T10:22:11;21.00;99.90
74901;DHT22;63461;51.416;6.758;2023-07-28T10:24:58;21.10;99.90
74901;DHT22;63461;51.416;6.758;2023-07-28T10:27:35;21.40;99.90
74901;DHT22;63461;51.416;6.758;2023-07-28T10:30:09;21.40;99.90
74901;DHT22;63461;51.416;6.758;2023-07-28T10:32:42;21.40;99.90
74901;DHT22;63461;51.416;6.758;2023-07-28T10:37:46;21.40;99.90
74901;DHT22;63461;51.416;6.758;2023-07-28T10:42:54;21.80;99.90
74901;DHT22;63461;51.416;6.758;2023-07-28T10:45:23;21.80;99.90
74901;DHT22;63461;51.416;6.758;2023-07-28T10:47:50;21.90;99.90
74901;DHT22;63461;51.416;6.758;2023-07-28T10:50:18;21.90;99.90
74901;DHT22;63461;51.416;6.758;2023-07-28T10:52:45;22.00;99.90
74901;DHT22;63461;51.416;6.758;2023-07-28T10:55:16;22.10;99.90
74901;DHT22;63461;51.416;6.758;2023-07-28T10:57:46;22.20;99.90
74901;DHT22;63461;51.416;6.758;2023-07-28T11:00:14;22.20;99.90
74901;DHT22;63461;51.416;6.758;2023-07-28T11:02:48;22.10;99.90
74901;DHT22;63461;51.416;6.758;2023-07-28T11:05:23;22.10;99.90
74901;DHT22;63461;51.416;6.758;2023-07-28T11:07:51;22.00;99.90
74901;DHT22;63461;51.416;6.758;2023-07-28T11:10:18;22.00;99.90
74901;DHT22;63461;51.416;6.758;2023-07-28T11:12:45;22.00;99.90
74901;DHT22;63461;51.416;6.758;2023-07-28T11:15:13;22.10;99.90
74901;DHT22;63461;51.416;6.758;2023-07-28T11:17:40;22.20;99.90
74901;DHT22;63461;51.416;6.758;2023-07-28T11:20:27;22.40;99.90
74901;DHT22;63461;51.416;6.758;2023-07-28T11:23:03;22.20;99.90
74901;DHT22;63461;51.416;6.758;2023-07-28T11:25:31;22.40;99.90
74901;DHT22;63461;51.416;6.758;2023-07-28T11:28:00;22.20;99.90
74901;DHT22;63461;51.416;6.758;2023-07-28T11:30:26;22.10;99.90
74901;DHT22;63461;51.416;6.758;2023-07-28T11:32:52;22.00;99.90
74901;DHT22;63461;51.416;6.758;2023-07-28T11:35:20;22.10;99.90
74901;DHT22;63461;51.416;6.758;2023-07-28T11:37:47;22.10;99.90
74901;DHT22;63461;51.416;6.758;2023-07-28T11:40:15;22.10;99.90
74901;DHT22;63461;51.416;6.758;2023-07-28T11:42:45;22.10;99.90
74901;DHT22;63461;51.416;6.758;2023-07-28T11:45:13;22.20;99.90
74901;DHT22;63461;51.416;6.758;2023-07-28T11:47:39;22.20;99.90
74901;DHT22;63461;51.416;6.758;2023-07-28T11:50:05;22.20;99.90
74901;DHT22;63461;51.416;6.758;2023-07-28T11:52:32;22.30;99.90
74901;DHT22;63461;51.416;6.758;2023-07-28T11:54:59;22.40;99.90
74901;DHT22;63461;51.416;6.758;2023-07-28T11:57:29;22.10;99.90
74901;DHT22;63461;51.416;6.758;2023-07-28T11:59:59;21.90;99.90
74901;DHT22;63461;51.416;6.758;2023-07-28T12:02:29;22.00;99.90
74901;DHT22;63461;51.416;6.758;2023-07-28T12:04:56;22.20;99.90
74901;DHT22;63461;51.416;6.758;2023-07-28T12:07:31;22.50;99.90
74901;DHT22;63461;51.416;6.758;2023-07-28T12:10:02;22.60;99.90
74901;DHT22;63461;51.416;6.758;2023-07-28T12:12:30;22.50;99.90
74901;DHT22;63461;51.416;6.758;2023-07-28T12:14:57;22.50;99.90
74901;DHT22;63461;51.416;6.758;2023-07-28T12:17:29;22.30;99.90
74901;DHT22;63461;51.416;6.758;2023-07-28T12:20:05;22.30;99.90
74901;DHT22;63461;51.416;6.758;2023-07-28T12:22:44;22.30;99.90
74901;DHT22;63461;51.416;6.758;2023-07-28T12:25:10;22.40;99.90
74901;DHT22;63461;51.416;6.758;2023-07-28T12:27:37;22.40;99.90
74901;DHT22;63461;51.416;6.758;2023-07-28T12:30:04;22.40;99.90
74901;DHT22;63461;51.416;6.758;2023-07-28T12:32:30;22.50;99.90
74901;DHT22;63461;51.416;6.758;2023-07-28T12:34:56;22.40;99.90
74901;DHT22;63461;51.416;6.758;2023-07-28T12:37:21;22.50;99.90
74901;DHT22;63461;51.416;6.758;2023-07-28T12:39:48;22.60;99.90
74901;DHT22;63461;51.416;6.758;2023-07-28T12:42:14;22.60;99.90
74901;DHT22;63461;51.416;6.758;2023-07-28T12:44:41;22.70;99.90
74901;DHT22;63461;51.416;6.758;2023-07-28T12:47:08;22.80;99.90
74901;DHT22;63461;51.416;6.758;2023-07-28T12:49:34;23.00;99.90
74901;DHT22;63461;51.416;6.758;2023-07-28T12:52:05;23.00;99.90
74901;DHT22;63461;51.416;6.758;2023-07-28T12:54:35;22.90;99.90
74901;DHT22;63461;51.416;6.758;2023-07-28T12:57:00;22.90;99.90
74901;DHT22;63461;51.416;6.758;2023-07-28T12:59:27;23.10;99.90
74901;DHT22;63461;51.416;6.758;2023-07-28T13:01:54;23.20;99.90
74901;DHT22;63461;51.416;6.758;2023-07-28T13:04:20;23.30;99.90
74901;DHT22;63461;51.416;6.758;2023-07-28T13:06:45;23.20;99.90
74901;DHT22;63461;51.416;6.758;2023-07-28T13:09:11;23.20;99.90
74901;DHT22;63461;51.416;6.758;2023-07-28T13:11:37;23.20;99.90
74901;DHT22;63461;51.416;6.758;2023-07-28T13:14:03;23.20;99.90
74901;DHT22;63461;51.416;6.758;2023-07-28T13:16:28;23.10;99.90
74901;DHT22;63461;51.416;6.758;2023-07-28T13:18:54;23.20;99.90
74901;DHT22;63461;51.416;6.758;2023-07-28T13:21:20;23.20;99.90
74901;DHT22;63461;51.416;6.758;2023-07-28T13:23:46;23.10;99.90
74901;DHT22;63461;51.416;6.758;2023-07-28T13:26:12;22.90;99.90
74901;DHT22;63461;51.416;6.758;2023-07-28T13:28:38;22.90;99.90
74901;DHT22;63461;51.416;6.758;2023-07-28T13:31:05;22.90;99.90
74901;DHT22;63461;51.416;6.758;2023-07-28T13:33:31;23.00;99.90
74901;DHT22;63461;51.416;6.758;2023-07-28T13:35:57;23.20;99.90
74901;DHT22;63461;51.416;6.758;2023-07-28T13:38:23;23.30;99.90
74901;DHT22;63461;51.416;6.758;2023-07-28T13:40:48;23.30;99.90
74901;DHT22;63461;51.416;6.758;2023-07-28T13:43:14;23.20;99.90
74901;DHT22;63461;51.416;6.758;2023-07-28T13:45:40;23.20;99.90
74901;DHT22;63461;51.416;6.758;2023-07-28T13:48:05;23.30;99.90
74901;DHT22;63461;51.416;6.758;2023-07-28T13:50:31;23.50;99.90
74901;DHT22;63461;51.416;6.758;2023-07-28T13:52:57;23.50;99.90
74901;DHT22;63461;51.416;6.758;2023-07-28T13:55:23;23.60;99.90
74901;DHT22;63461;51.416;6.758;2023-07-28T13:57:48;23.70;99.90
74901;DHT22;63461;51.416;6.758;2023-07-28T14:00:14;23.70;99.90
74901;DHT22;63461;51.416;6.758;2023-07-28T14:02:40;23.60;99.90
74901;DHT22;63461;51.416;6.758;2023-07-28T14:05:07;23.60;99.90
74901;DHT22;63461;51.416;6.758;2023-07-28T14:07:33;23.70;99.90
74901;DHT22;63461;51.416;6.758;2023-07-28T14:10:02;23.70;99.90
74901;DHT22;63461;51.416;6.758;2023-07-28T14:12:29;23.70;99.90
74901;DHT22;63461;51.416;6.758;2023-07-28T14:14:55;23.80;99.90
74901;DHT22;63461;51.416;6.758;2023-07-28T14:17:20;23.90;99.90
74901;DHT22;63461;51.416;6.758;2023-07-28T14:19:46;23.80;99.90
74901;DHT22;63461;51.416;6.758;2023-07-28T14:22:12;23.70;99.90
74901;DHT22;63461;51.416;6.758;2023-07-28T14:24:38;23.60;99.90
74901;DHT22;63461;51.416;6.758;2023-07-28T14:27:04;23.50;99.90
74901;DHT22;63461;51.416;6.758;2023-07-28T14:29:30;23.40;99.90
74901;DHT22;63461;51.416;6.758;2023-07-28T14:31:56;23.40;99.90
74901;DHT22;63461;51.416;6.758;2023-07-28T14:34:22;23.30;99.90
74901;DHT22;63461;51.416;6.758;2023-07-28T14:36:48;23.40;99.90
74901;DHT22;63461;51.416;6.758;2023-07-28T14:39:13;23.30;99.90
74901;DHT22;63461;51.416;6.758;2023-07-28T14:41:39;23.40;99.90
74901;DHT22;63461;51.416;6.758;2023-07-28T14:44:05;23.30;99.90
74901;DHT22;63461;51.416;6.758;2023-07-28T14:46:31;23.40;99.90
74901;DHT22;63461;51.416;6.758;2023-07-28T14:48:58;23.40;99.90
74901;DHT22;63461;51.416;6.758;2023-07-28T14:51:23;23.40;99.90
74901;DHT22;63461;51.416;6.758;2023-07-28T14:53:49;23.40;99.90
74901;DHT22;63461;51.416;6.758;2023-07-28T14:56:16;23.40;99.90
74901;DHT22;63461;51.416;6.758;2023-07-28T14:58:43;23.30;99.90
74901;DHT22;63461;51.416;6.758;2023-07-28T15:01:12;23.30;99.90
74901;DHT22;63461;51.416;6.758;2023-07-28T15:03:38;23.40;99.90
74901;DHT22;63461;51.416;6.758;2023-07-28T15:06:04;23.30;99.90
74901;DHT22;63461;51.416;6.758;2023-07-28T15:08:30;23.30;99.90
74901;DHT22;63461;51.416;6.758;2023-07-28T15:10:57;23.40;99.90
74901;DHT22;63461;51.416;6.758;2023-07-28T15:13:23;23.10;99.90
74901;DHT22;63461;51.416;6.758;2023-07-28T15:15:49;23.10;99.90
74901;DHT22;63461;51.416;6.758;2023-07-28T15:18:15;22.90;99.90
74901;DHT22;63461;51.416;6.758;2023-07-28T15:20:42;22.80;99.90
74901;DHT22;63461;51.416;6.758;2023-07-28T15:23:08;22.80;99.90
74901;DHT22;63461;51.416;6.758;2023-07-28T15:25:34;22.80;99.90
74901;DHT22;63461;51.416;6.758;2023-07-28T15:28:00;22.80;99.90
74901;DHT22;63461;51.416;6.758;2023-07-28T15:30:26;22.80;99.90
74901;DHT22;63461;51.416;6.758;2023-07-28T15:32:51;22.70;99.90
74901;DHT22;63461;51.416;6.758;2023-07-28T15:35:17;22.80;99.90
74901;DHT22;63461;51.416;6.758;2023-07-28T15:37:45;22.70;99.90